sensor_id;sensor_type;location;lat;lon;timestamp;P1;durP1;ratioP1;P2;durP2;ratioP2
62654;SDS011;48717;55.556;37.816;2023-01-09T00:02:24;18.63;;;7.25;;
62654;SDS011;48717;55.556;37.816;2023-01-09T00:04:52;26.05;;;11.57;;
62654;SDS011;48717;55.556;37.816;2023-01-09T00:07:19;26.10;;;10.70;;
62654;SDS011;48717;55.556;37.816;2023-01-09T00:09:46;27.13;;;10.60;;
62654;SDS011;48717;55.556;37.816;2023-01-09T00:12:13;24.50;;;10.35;;
62654;SDS011;48717;55.556;37.816;2023-01-09T00:14:40;21.23;;;8.52;;
62654;SDS011;48717;55.556;37.816;2023-01-09T00:17:07;20.63;;;8.73;;
62654;SDS011;48717;55.556;37.816;2023-01-09T00:19:34;22.27;;;9.13;;
62654;SDS011;48717;55.556;37.816;2023-01-09T00:22:01;26.95;;;9.15;;
62654;SDS011;48717;55.556;37.816;2023-01-09T00:24:28;11.70;;;5.05;;
62654;SDS011;48717;55.556;37.816;2023-01-09T00:26:55;17.48;;;6.97;;
62654;SDS011;48717;55.556;37.816;2023-01-09T00:29:23;23.73;;;8.77;;
62654;SDS011;48717;55.556;37.816;2023-01-09T00:32:36;16.05;;;6.30;;
62654;SDS011;48717;55.556;37.816;2023-01-09T00:35:35;20.88;;;9.13;;
62654;SDS011;48717;55.556;37.816;2023-01-09T00:38:02;19.80;;;8.48;;
62654;SDS011;48717;55.556;37.816;2023-01-09T00:40:30;27.40;;;9.60;;
62654;SDS011;48717;55.556;37.816;2023-01-09T00:42:57;28.90;;;11.70;;
62654;SDS011;48717;55.556;37.816;2023-01-09T00:45:24;26.98;;;10.40;;
62654;SDS011;48717;55.556;37.816;2023-01-09T00:48:00;33.85;;;13.25;;
62654;SDS011;48717;55.556;37.816;2023-01-09T00:50:30;38.28;;;15.32;;
62654;SDS011;48717;55.556;37.816;2023-01-09T00:53:02;28.50;;;12.25;;
62654;SDS011;48717;55.556;37.816;2023-01-09T00:56:14;15.85;;;7.65;;
62654;SDS011;48717;55.556;37.816;2023-01-09T00:59:25;26.25;;;10.85;;
62654;SDS011;48717;55.556;37.816;2023-01-09T01:02:08;22.90;;;11.15;;
62654;SDS011;48717;55.556;37.816;2023-01-09T01:04:37;19.27;;;8.82;;
62654;SDS011;48717;55.556;37.816;2023-01-09T01:07:22;31.08;;;10.50;;
62654;SDS011;48717;55.556;37.816;2023-01-09T01:10:05;17.83;;;8.93;;
62654;SDS011;48717;55.556;37.816;2023-01-09T01:12:39;25.23;;;8.55;;
62654;SDS011;48717;55.556;37.816;2023-01-09T01:15:07;23.73;;;7.95;;
62654;SDS011;48717;55.556;37.816;2023-01-09T01:17:40;25.90;;;11.23;;
62654;SDS011;48717;55.556;37.816;2023-01-09T01:20:11;27.08;;;12.38;;
62654;SDS011;48717;55.556;37.816;2023-01-09T01:22:39;18.13;;;8.70;;
62654;SDS011;48717;55.556;37.816;2023-01-09T01:25:10;27.90;;;9.13;;
62654;SDS011;48717;55.556;37.816;2023-01-09T01:27:38;15.18;;;6.78;;
62654;SDS011;48717;55.556;37.816;2023-01-09T01:30:07;22.30;;;10.07;;
62654;SDS011;48717;55.556;37.816;2023-01-09T01:32:36;20.52;;;8.82;;
62654;SDS011;48717;55.556;37.816;2023-01-09T01:35:03;41.65;;;13.98;;
62654;SDS011;48717;55.556;37.816;2023-01-09T01:37:32;20.95;;;8.48;;
62654;SDS011;48717;55.556;37.816;2023-01-09T01:40:00;34.47;;;14.57;;
62654;SDS011;48717;55.556;37.816;2023-01-09T01:42:57;22.58;;;7.47;;
62654;SDS011;48717;55.556;37.816;2023-01-09T01:45:28;18.70;;;9.68;;
62654;SDS011;48717;55.556;37.816;2023-01-09T01:48:01;30.55;;;12.25;;
62654;SDS011;48717;55.556;37.816;2023-01-09T01:50:38;21.20;;;7.60;;
62654;SDS011;48717;55.556;37.816;2023-01-09T01:58:51;16.92;;;8.75;;
62654;SDS011;48717;55.556;37.816;2023-01-09T02:02:11;24.48;;;9.93;;
62654;SDS011;48717;55.556;37.816;2023-01-09T02:08:06;21.85;;;9.40;;
62654;SDS011;48717;55.556;37.816;2023-01-09T02:10:35;32.58;;;12.50;;
62654;SDS011;48717;55.556;37.816;2023-01-09T02:13:07;24.80;;;7.60;;
62654;SDS011;48717;55.556;37.816;2023-01-09T02:21:44;28.20;;;9.52;;
62654;SDS011;48717;55.556;37.816;2023-01-09T02:28:34;18.33;;;7.57;;
62654;SDS011;48717;55.556;37.816;2023-01-09T02:34:20;17.60;;;8.77;;
62654;SDS011;48717;55.556;37.816;2023-01-09T02:42:56;28.15;;;8.38;;
62654;SDS011;48717;55.556;37.816;2023-01-09T02:45:25;25.73;;;8.77;;
62654;SDS011;48717;55.556;37.816;2023-01-09T02:47:53;17.13;;;7.70;;
62654;SDS011;48717;55.556;37.816;2023-01-09T02:50:26;17.40;;;7.65;;
62654;SDS011;48717;55.556;37.816;2023-01-09T02:53:53;12.05;;;5.50;;
62654;SDS011;48717;55.556;37.816;2023-01-09T03:08:49;43.95;;;11.82;;
62654;SDS011;48717;55.556;37.816;2023-01-09T03:11:19;15.05;;;7.03;;
62654;SDS011;48717;55.556;37.816;2023-01-09T03:13:52;28.20;;;12.52;;
62654;SDS011;48717;55.556;37.816;2023-01-09T03:16:27;14.23;;;5.80;;
62654;SDS011;48717;55.556;37.816;2023-01-09T03:18:59;20.40;;;7.93;;
62654;SDS011;48717;55.556;37.816;2023-01-09T03:21:29;24.13;;;8.45;;
62654;SDS011;48717;55.556;37.816;2023-01-09T03:23:58;22.65;;;10.05;;
62654;SDS011;48717;55.556;37.816;2023-01-09T03:26:26;15.98;;;7.22;;
62654;SDS011;48717;55.556;37.816;2023-01-09T03:28:57;11.10;;;5.93;;
62654;SDS011;48717;55.556;37.816;2023-01-09T03:31:25;34.17;;;7.20;;
62654;SDS011;48717;55.556;37.816;2023-01-09T03:33:52;18.58;;;7.50;;
62654;SDS011;48717;55.556;37.816;2023-01-09T03:36:20;26.70;;;9.85;;
62654;SDS011;48717;55.556;37.816;2023-01-09T03:38:48;10.13;;;4.95;;
62654;SDS011;48717;55.556;37.816;2023-01-09T03:41:17;24.98;;;7.75;;
62654;SDS011;48717;55.556;37.816;2023-01-09T03:44:27;15.50;;;6.22;;
62654;SDS011;48717;55.556;37.816;2023-01-09T03:46:56;17.50;;;5.28;;
62654;SDS011;48717;55.556;37.816;2023-01-09T03:49:23;24.42;;;9.68;;
62654;SDS011;48717;55.556;37.816;2023-01-09T03:51:50;25.02;;;8.82;;
62654;SDS011;48717;55.556;37.816;2023-01-09T03:54:17;21.73;;;6.10;;
62654;SDS011;48717;55.556;37.816;2023-01-09T03:56:45;20.52;;;8.13;;
62654;SDS011;48717;55.556;37.816;2023-01-09T03:59:12;17.52;;;6.20;;
62654;SDS011;48717;55.556;37.816;2023-01-09T04:01:39;9.40;;;3.97;;
62654;SDS011;48717;55.556;37.816;2023-01-09T04:04:06;16.35;;;6.47;;
62654;SDS011;48717;55.556;37.816;2023-01-09T04:06:34;9.10;;;3.90;;
62654;SDS011;48717;55.556;37.816;2023-01-09T04:09:01;16.23;;;6.95;;
62654;SDS011;48717;55.556;37.816;2023-01-09T04:11:28;8.20;;;4.57;;
62654;SDS011;48717;55.556;37.816;2023-01-09T04:13:55;13.07;;;5.60;;
62654;SDS011;48717;55.556;37.816;2023-01-09T04:16:22;17.27;;;6.22;;
62654;SDS011;48717;55.556;37.816;2023-01-09T04:18:49;14.05;;;5.57;;
62654;SDS011;48717;55.556;37.816;2023-01-09T04:21:17;14.65;;;5.47;;
62654;SDS011;48717;55.556;37.816;2023-01-09T04:23:44;13.30;;;4.97;;
62654;SDS011;48717;55.556;37.816;2023-01-09T04:26:11;5.90;;;2.83;;
62654;SDS011;48717;55.556;37.816;2023-01-09T04:28:38;13.70;;;4.05;;
62654;SDS011;48717;55.556;37.816;2023-01-09T04:31:14;9.65;;;4.43;;
62654;SDS011;48717;55.556;37.816;2023-01-09T04:33:42;16.70;;;5.25;;
62654;SDS011;48717;55.556;37.816;2023-01-09T04:36:09;4.10;;;2.63;;
62654;SDS011;48717;55.556;37.816;2023-01-09T04:38:39;16.17;;;6.03;;
62654;SDS011;48717;55.556;37.816;2023-01-09T04:41:31;12.88;;;4.97;;
62654;SDS011;48717;55.556;37.816;2023-01-09T04:44:17;14.20;;;4.63;;
62654;SDS011;48717;55.556;37.816;2023-01-09T04:46:46;12.25;;;6.63;;
62654;SDS011;48717;55.556;37.816;2023-01-09T04:49:14;4.57;;;2.42;;
62654;SDS011;48717;55.556;37.816;2023-01-09T04:51:41;9.20;;;4.43;;
62654;SDS011;48717;55.556;37.816;2023-01-09T04:54:08;12.80;;;4.72;;
62654;SDS011;48717;55.556;37.816;2023-01-09T04:56:36;17.83;;;5.80;;
62654;SDS011;48717;55.556;37.816;2023-01-09T04:59:03;9.27;;;3.47;;
62654;SDS011;48717;55.556;37.816;2023-01-09T05:01:31;12.73;;;3.72;;
62654;SDS011;48717;55.556;37.816;2023-01-09T05:03:59;10.38;;;4.35;;
62654;SDS011;48717;55.556;37.816;2023-01-09T05:06:27;10.95;;;4.53;;
62654;SDS011;48717;55.556;37.816;2023-01-09T05:08:54;18.38;;;2.88;;
62654;SDS011;48717;55.556;37.816;2023-01-09T05:11:22;9.73;;;4.15;;
62654;SDS011;48717;55.556;37.816;2023-01-09T05:13:51;6.35;;;3.42;;
62654;SDS011;48717;55.556;37.816;2023-01-09T05:16:19;6.60;;;2.78;;
62654;SDS011;48717;55.556;37.816;2023-01-09T05:18:47;10.82;;;4.57;;
62654;SDS011;48717;55.556;37.816;2023-01-09T05:21:14;12.00;;;4.13;;
62654;SDS011;48717;55.556;37.816;2023-01-09T05:23:41;16.42;;;6.20;;
62654;SDS011;48717;55.556;37.816;2023-01-09T05:26:08;11.88;;;4.68;;
62654;SDS011;48717;55.556;37.816;2023-01-09T05:28:35;5.50;;;2.90;;
62654;SDS011;48717;55.556;37.816;2023-01-09T05:31:03;8.50;;;3.53;;
62654;SDS011;48717;55.556;37.816;2023-01-09T05:33:30;9.45;;;4.13;;
62654;SDS011;48717;55.556;37.816;2023-01-09T05:35:57;10.65;;;3.53;;
62654;SDS011;48717;55.556;37.816;2023-01-09T05:38:24;9.75;;;3.53;;
62654;SDS011;48717;55.556;37.816;2023-01-09T05:40:51;8.25;;;3.83;;
62654;SDS011;48717;55.556;37.816;2023-01-09T05:43:18;17.95;;;6.05;;
62654;SDS011;48717;55.556;37.816;2023-01-09T05:45:45;13.25;;;5.03;;
62654;SDS011;48717;55.556;37.816;2023-01-09T05:48:12;12.57;;;4.43;;
62654;SDS011;48717;55.556;37.816;2023-01-09T05:50:39;13.88;;;4.95;;
62654;SDS011;48717;55.556;37.816;2023-01-09T05:53:06;9.85;;;3.75;;
62654;SDS011;48717;55.556;37.816;2023-01-09T05:55:33;8.65;;;3.08;;
62654;SDS011;48717;55.556;37.816;2023-01-09T05:58:00;13.65;;;3.80;;
62654;SDS011;48717;55.556;37.816;2023-01-09T06:00:27;6.20;;;4.15;;
62654;SDS011;48717;55.556;37.816;2023-01-09T06:02:55;16.60;;;3.92;;
62654;SDS011;48717;55.556;37.816;2023-01-09T06:05:22;15.48;;;6.05;;
62654;SDS011;48717;55.556;37.816;2023-01-09T06:07:49;16.63;;;5.57;;
62654;SDS011;48717;55.556;37.816;2023-01-09T06:10:16;11.60;;;4.68;;
62654;SDS011;48717;55.556;37.816;2023-01-09T06:12:46;10.20;;;3.67;;
62654;SDS011;48717;55.556;37.816;2023-01-09T06:15:16;12.73;;;5.30;;
62654;SDS011;48717;55.556;37.816;2023-01-09T06:17:53;11.52;;;5.55;;
62654;SDS011;48717;55.556;37.816;2023-01-09T06:20:21;13.85;;;6.75;;
62654;SDS011;48717;55.556;37.816;2023-01-09T06:22:48;16.90;;;6.88;;
62654;SDS011;48717;55.556;37.816;2023-01-09T06:25:17;22.95;;;7.72;;
62654;SDS011;48717;55.556;37.816;2023-01-09T06:27:45;19.08;;;6.65;;
62654;SDS011;48717;55.556;37.816;2023-01-09T06:30:12;14.65;;;5.47;;
62654;SDS011;48717;55.556;37.816;2023-01-09T06:32:40;6.40;;;3.85;;
62654;SDS011;48717;55.556;37.816;2023-01-09T06:35:07;10.73;;;5.78;;
62654;SDS011;48717;55.556;37.816;2023-01-09T06:37:35;16.65;;;5.03;;
62654;SDS011;48717;55.556;37.816;2023-01-09T06:40:02;18.60;;;5.60;;
62654;SDS011;48717;55.556;37.816;2023-01-09T06:42:29;10.30;;;3.72;;
62654;SDS011;48717;55.556;37.816;2023-01-09T06:44:56;14.30;;;5.80;;
62654;SDS011;48717;55.556;37.816;2023-01-09T06:47:23;17.10;;;6.38;;
62654;SDS011;48717;55.556;37.816;2023-01-09T06:49:50;18.05;;;7.18;;
62654;SDS011;48717;55.556;37.816;2023-01-09T06:52:17;17.73;;;6.15;;
62654;SDS011;48717;55.556;37.816;2023-01-09T06:54:44;19.65;;;7.13;;
62654;SDS011;48717;55.556;37.816;2023-01-09T06:57:11;13.65;;;4.38;;
62654;SDS011;48717;55.556;37.816;2023-01-09T06:59:40;21.77;;;7.03;;
62654;SDS011;48717;55.556;37.816;2023-01-09T07:02:11;14.73;;;6.00;;
62654;SDS011;48717;55.556;37.816;2023-01-09T07:04:43;25.25;;;9.75;;
62654;SDS011;48717;55.556;37.816;2023-01-09T07:07:10;27.90;;;8.00;;
62654;SDS011;48717;55.556;37.816;2023-01-09T07:09:38;17.02;;;7.20;;
62654;SDS011;48717;55.556;37.816;2023-01-09T07:12:05;14.82;;;6.40;;
62654;SDS011;48717;55.556;37.816;2023-01-09T07:14:32;17.10;;;6.97;;
62654;SDS011;48717;55.556;37.816;2023-01-09T07:16:59;22.02;;;6.68;;
62654;SDS011;48717;55.556;37.816;2023-01-09T07:19:26;24.92;;;8.75;;
62654;SDS011;48717;55.556;37.816;2023-01-09T07:21:53;21.10;;;8.13;;
62654;SDS011;48717;55.556;37.816;2023-01-09T07:24:20;25.67;;;8.98;;
62654;SDS011;48717;55.556;37.816;2023-01-09T07:26:47;20.23;;;7.03;;
62654;SDS011;48717;55.556;37.816;2023-01-09T07:29:14;14.63;;;6.82;;
62654;SDS011;48717;55.556;37.816;2023-01-09T07:31:41;21.73;;;7.13;;
62654;SDS011;48717;55.556;37.816;2023-01-09T07:34:08;18.83;;;6.70;;
62654;SDS011;48717;55.556;37.816;2023-01-09T07:36:35;21.50;;;8.55;;
62654;SDS011;48717;55.556;37.816;2023-01-09T07:39:02;11.25;;;5.38;;
62654;SDS011;48717;55.556;37.816;2023-01-09T07:41:29;12.48;;;5.97;;
62654;SDS011;48717;55.556;37.816;2023-01-09T07:43:57;17.67;;;6.20;;
62654;SDS011;48717;55.556;37.816;2023-01-09T07:46:24;16.15;;;4.80;;
62654;SDS011;48717;55.556;37.816;2023-01-09T07:48:51;23.00;;;9.90;;
62654;SDS011;48717;55.556;37.816;2023-01-09T07:51:18;16.55;;;6.72;;
62654;SDS011;48717;55.556;37.816;2023-01-09T07:53:45;14.65;;;5.88;;
62654;SDS011;48717;55.556;37.816;2023-01-09T07:56:12;16.08;;;5.88;;
62654;SDS011;48717;55.556;37.816;2023-01-09T07:58:39;7.43;;;3.28;;
62654;SDS011;48717;55.556;37.816;2023-01-09T08:01:06;20.10;;;6.70;;
62654;SDS011;48717;55.556;37.816;2023-01-09T08:03:33;20.80;;;7.20;;
62654;SDS011;48717;55.556;37.816;2023-01-09T08:06:00;15.98;;;5.95;;
62654;SDS011;48717;55.556;37.816;2023-01-09T08:08:27;22.95;;;8.35;;
62654;SDS011;48717;55.556;37.816;2023-01-09T08:10:54;15.80;;;6.47;;
62654;SDS011;48717;55.556;37.816;2023-01-09T08:13:22;17.80;;;6.95;;
62654;SDS011;48717;55.556;37.816;2023-01-09T08:15:49;17.92;;;7.43;;
62654;SDS011;48717;55.556;37.816;2023-01-09T08:18:16;11.02;;;4.28;;
62654;SDS011;48717;55.556;37.816;2023-01-09T08:20:43;13.73;;;5.18;;
62654;SDS011;48717;55.556;37.816;2023-01-09T08:23:10;20.30;;;6.85;;
62654;SDS011;48717;55.556;37.816;2023-01-09T08:25:37;24.20;;;7.68;;
62654;SDS011;48717;55.556;37.816;2023-01-09T08:28:04;14.23;;;6.30;;
62654;SDS011;48717;55.556;37.816;2023-01-09T08:30:31;13.98;;;5.80;;
62654;SDS011;48717;55.556;37.816;2023-01-09T08:32:58;14.38;;;5.88;;
62654;SDS011;48717;55.556;37.816;2023-01-09T08:35:25;10.38;;;5.40;;
62654;SDS011;48717;55.556;37.816;2023-01-09T08:37:52;16.25;;;6.47;;
62654;SDS011;48717;55.556;37.816;2023-01-09T08:40:19;15.65;;;6.32;;
62654;SDS011;48717;55.556;37.816;2023-01-09T08:42:46;18.02;;;6.30;;
62654;SDS011;48717;55.556;37.816;2023-01-09T08:45:33;13.88;;;5.75;;
62654;SDS011;48717;55.556;37.816;2023-01-09T08:48:18;13.25;;;5.85;;
62654;SDS011;48717;55.556;37.816;2023-01-09T08:50:45;20.00;;;6.00;;
62654;SDS011;48717;55.556;37.816;2023-01-09T08:53:12;13.07;;;5.85;;
62654;SDS011;48717;55.556;37.816;2023-01-09T08:55:41;17.65;;;7.05;;
62654;SDS011;48717;55.556;37.816;2023-01-09T08:58:09;17.67;;;5.85;;
62654;SDS011;48717;55.556;37.816;2023-01-09T09:00:36;11.27;;;4.78;;
62654;SDS011;48717;55.556;37.816;2023-01-09T09:03:03;19.10;;;7.60;;
62654;SDS011;48717;55.556;37.816;2023-01-09T09:05:31;12.35;;;5.20;;
62654;SDS011;48717;55.556;37.816;2023-01-09T09:07:58;15.73;;;6.80;;
62654;SDS011;48717;55.556;37.816;2023-01-09T09:10:26;12.93;;;5.03;;
62654;SDS011;48717;55.556;37.816;2023-01-09T09:12:55;15.30;;;5.38;;
62654;SDS011;48717;55.556;37.816;2023-01-09T09:15:24;18.40;;;6.15;;
62654;SDS011;48717;55.556;37.816;2023-01-09T09:17:53;15.82;;;5.53;;
62654;SDS011;48717;55.556;37.816;2023-01-09T09:20:21;10.05;;;4.85;;
62654;SDS011;48717;55.556;37.816;2023-01-09T09:22:50;13.18;;;5.53;;
62654;SDS011;48717;55.556;37.816;2023-01-09T09:25:18;9.23;;;4.30;;
62654;SDS011;48717;55.556;37.816;2023-01-09T09:27:45;13.65;;;5.03;;
62654;SDS011;48717;55.556;37.816;2023-01-09T09:30:13;11.60;;;5.57;;
62654;SDS011;48717;55.556;37.816;2023-01-09T09:32:42;10.35;;;4.88;;
62654;SDS011;48717;55.556;37.816;2023-01-09T09:35:09;14.40;;;6.25;;
62654;SDS011;48717;55.556;37.816;2023-01-09T09:37:37;10.63;;;5.40;;
62654;SDS011;48717;55.556;37.816;2023-01-09T09:40:05;13.70;;;5.43;;
62654;SDS011;48717;55.556;37.816;2023-01-09T09:56:55;9.82;;;3.80;;
62654;SDS011;48717;55.556;37.816;2023-01-09T09:59:26;13.35;;;5.60;;
62654;SDS011;48717;55.556;37.816;2023-01-09T10:04:50;11.38;;;5.05;;
62654;SDS011;48717;55.556;37.816;2023-01-09T10:07:30;14.57;;;5.95;;
62654;SDS011;48717;55.556;37.816;2023-01-09T10:10:18;8.50;;;4.05;;
62654;SDS011;48717;55.556;37.816;2023-01-09T10:12:53;10.27;;;4.53;;
62654;SDS011;48717;55.556;37.816;2023-01-09T10:15:36;12.45;;;5.22;;
62654;SDS011;48717;55.556;37.816;2023-01-09T10:26:00;10.70;;;4.28;;
62654;SDS011;48717;55.556;37.816;2023-01-09T10:31:31;19.65;;;6.85;;
62654;SDS011;48717;55.556;37.816;2023-01-09T10:47:34;10.03;;;4.70;;
62654;SDS011;48717;55.556;37.816;2023-01-09T10:50:12;11.13;;;4.57;;
62654;SDS011;48717;55.556;37.816;2023-01-09T10:52:42;11.52;;;4.32;;
62654;SDS011;48717;55.556;37.816;2023-01-09T10:55:16;8.55;;;3.42;;
62654;SDS011;48717;55.556;37.816;2023-01-09T10:57:49;10.82;;;3.08;;
62654;SDS011;48717;55.556;37.816;2023-01-09T11:00:23;11.18;;;3.67;;
62654;SDS011;48717;55.556;37.816;2023-01-09T11:02:51;10.48;;;5.13;;
62654;SDS011;48717;55.556;37.816;2023-01-09T11:05:26;5.97;;;3.30;;
62654;SDS011;48717;55.556;37.816;2023-01-09T11:08:00;11.65;;;4.43;;
62654;SDS011;48717;55.556;37.816;2023-01-09T11:10:43;11.25;;;4.55;;
62654;SDS011;48717;55.556;37.816;2023-01-09T11:13:16;10.95;;;4.13;;
62654;SDS011;48717;55.556;37.816;2023-01-09T11:18:47;11.68;;;5.03;;
62654;SDS011;48717;55.556;37.816;2023-01-09T11:23:52;7.63;;;3.35;;
62654;SDS011;48717;55.556;37.816;2023-01-09T11:26:21;10.02;;;4.72;;
62654;SDS011;48717;55.556;37.816;2023-01-09T11:29:05;11.00;;;4.10;;
62654;SDS011;48717;55.556;37.816;2023-01-09T11:31:40;4.90;;;2.63;;
62654;SDS011;48717;55.556;37.816;2023-01-09T11:34:17;9.40;;;3.53;;
62654;SDS011;48717;55.556;37.816;2023-01-09T11:36:47;14.73;;;4.97;;
62654;SDS011;48717;55.556;37.816;2023-01-09T11:39:21;8.60;;;4.57;;
62654;SDS011;48717;55.556;37.816;2023-01-09T11:41:58;11.68;;;5.10;;
62654;SDS011;48717;55.556;37.816;2023-01-09T11:44:27;10.75;;;5.43;;
62654;SDS011;48717;55.556;37.816;2023-01-09T11:49:28;11.73;;;5.30;;
62654;SDS011;48717;55.556;37.816;2023-01-09T11:54:43;12.23;;;5.65;;
62654;SDS011;48717;55.556;37.816;2023-01-09T11:57:34;9.82;;;3.15;;
62654;SDS011;48717;55.556;37.816;2023-01-09T12:00:03;11.00;;;4.95;;
62654;SDS011;48717;55.556;37.816;2023-01-09T12:11:20;11.38;;;4.78;;
62654;SDS011;48717;55.556;37.816;2023-01-09T12:19:12;16.93;;;6.03;;
62654;SDS011;48717;55.556;37.816;2023-01-09T12:22:05;14.88;;;6.05;;
62654;SDS011;48717;55.556;37.816;2023-01-09T12:25:08;10.32;;;5.07;;
62654;SDS011;48717;55.556;37.816;2023-01-09T12:28:09;14.32;;;5.80;;
62654;SDS011;48717;55.556;37.816;2023-01-09T12:34:23;12.73;;;5.55;;
62654;SDS011;48717;55.556;37.816;2023-01-09T12:48:16;12.63;;;4.28;;
62654;SDS011;48717;55.556;37.816;2023-01-09T12:50:53;8.23;;;3.00;;
62654;SDS011;48717;55.556;37.816;2023-01-09T12:53:43;11.10;;;4.75;;
62654;SDS011;48717;55.556;37.816;2023-01-09T12:56:21;10.88;;;3.88;;
62654;SDS011;48717;55.556;37.816;2023-01-09T13:01:44;8.05;;;3.40;;
62654;SDS011;48717;55.556;37.816;2023-01-09T13:04:16;6.35;;;3.28;;
62654;SDS011;48717;55.556;37.816;2023-01-09T13:06:54;7.90;;;3.30;;
62654;SDS011;48717;55.556;37.816;2023-01-09T13:09:30;9.43;;;3.58;;
62654;SDS011;48717;55.556;37.816;2023-01-09T13:12:18;7.00;;;3.17;;
62654;SDS011;48717;55.556;37.816;2023-01-09T13:20:46;7.75;;;2.80;;
62654;SDS011;48717;55.556;37.816;2023-01-09T13:26:04;6.40;;;2.95;;
62654;SDS011;48717;55.556;37.816;2023-01-09T13:28:35;10.10;;;3.38;;
62654;SDS011;48717;55.556;37.816;2023-01-09T13:33:56;5.57;;;2.97;;
62654;SDS011;48717;55.556;37.816;2023-01-09T13:36:26;6.55;;;2.70;;
62654;SDS011;48717;55.556;37.816;2023-01-09T13:38:56;5.75;;;2.75;;
62654;SDS011;48717;55.556;37.816;2023-01-09T13:41:24;6.85;;;3.10;;
62654;SDS011;48717;55.556;37.816;2023-01-09T13:46:45;5.93;;;2.28;;
62654;SDS011;48717;55.556;37.816;2023-01-09T13:52:04;9.52;;;2.95;;
62654;SDS011;48717;55.556;37.816;2023-01-09T13:57:24;8.27;;;3.30;;
62654;SDS011;48717;55.556;37.816;2023-01-09T14:05:11;4.55;;;2.50;;
62654;SDS011;48717;55.556;37.816;2023-01-09T14:10:21;9.82;;;4.10;;
62654;SDS011;48717;55.556;37.816;2023-01-09T14:12:51;8.27;;;3.80;;
62654;SDS011;48717;55.556;37.816;2023-01-09T14:15:26;8.55;;;3.38;;
62654;SDS011;48717;55.556;37.816;2023-01-09T14:18:05;6.57;;;3.10;;
62654;SDS011;48717;55.556;37.816;2023-01-09T14:20:41;6.30;;;2.35;;
62654;SDS011;48717;55.556;37.816;2023-01-09T14:23:24;4.03;;;2.05;;
62654;SDS011;48717;55.556;37.816;2023-01-09T14:26:16;7.57;;;3.22;;
62654;SDS011;48717;55.556;37.816;2023-01-09T14:28:45;4.65;;;2.25;;
62654;SDS011;48717;55.556;37.816;2023-01-09T14:31:28;9.05;;;3.63;;
62654;SDS011;48717;55.556;37.816;2023-01-09T14:34:43;8.43;;;3.47;;
62654;SDS011;48717;55.556;37.816;2023-01-09T14:36:58;7.80;;;3.92;;
62654;SDS011;48717;55.556;37.816;2023-01-09T14:39:31;6.93;;;3.45;;
62654;SDS011;48717;55.556;37.816;2023-01-09T14:41:59;14.25;;;4.55;;
62654;SDS011;48717;55.556;37.816;2023-01-09T14:47:31;7.55;;;3.03;;
62654;SDS011;48717;55.556;37.816;2023-01-09T14:50:23;8.88;;;3.95;;
62654;SDS011;48717;55.556;37.816;2023-01-09T14:53:14;7.55;;;2.88;;
62654;SDS011;48717;55.556;37.816;2023-01-09T14:58:27;7.80;;;4.15;;
62654;SDS011;48717;55.556;37.816;2023-01-09T15:03:39;19.17;;;4.88;;
62654;SDS011;48717;55.556;37.816;2023-01-09T15:06:20;7.60;;;3.72;;
62654;SDS011;48717;55.556;37.816;2023-01-09T15:11:28;8.75;;;3.75;;
62654;SDS011;48717;55.556;37.816;2023-01-09T15:13:58;9.23;;;2.33;;
62654;SDS011;48717;55.556;37.816;2023-01-09T15:16:30;6.90;;;3.25;;
62654;SDS011;48717;55.556;37.816;2023-01-09T15:19:02;11.13;;;4.30;;
62654;SDS011;48717;55.556;37.816;2023-01-09T15:21:33;10.20;;;3.78;;
62654;SDS011;48717;55.556;37.816;2023-01-09T15:24:10;4.40;;;2.15;;
62654;SDS011;48717;55.556;37.816;2023-01-09T15:26:55;6.18;;;3.03;;
62654;SDS011;48717;55.556;37.816;2023-01-09T15:29:24;8.93;;;3.85;;
62654;SDS011;48717;55.556;37.816;2023-01-09T15:31:53;10.73;;;3.70;;
62654;SDS011;48717;55.556;37.816;2023-01-09T15:34:24;11.00;;;3.67;;
62654;SDS011;48717;55.556;37.816;2023-01-09T15:36:51;10.32;;;3.30;;
62654;SDS011;48717;55.556;37.816;2023-01-09T15:39:27;9.02;;;3.80;;
62654;SDS011;48717;55.556;37.816;2023-01-09T15:42:15;7.43;;;3.78;;
62654;SDS011;48717;55.556;37.816;2023-01-09T15:45:12;6.93;;;3.25;;
62654;SDS011;48717;55.556;37.816;2023-01-09T15:47:44;7.35;;;3.38;;
62654;SDS011;48717;55.556;37.816;2023-01-09T15:50:12;7.95;;;2.60;;
62654;SDS011;48717;55.556;37.816;2023-01-09T15:52:41;9.75;;;2.80;;
62654;SDS011;48717;55.556;37.816;2023-01-09T15:58:01;9.63;;;3.03;;
62654;SDS011;48717;55.556;37.816;2023-01-09T16:00:34;5.50;;;2.53;;
62654;SDS011;48717;55.556;37.816;2023-01-09T16:03:11;9.38;;;4.35;;
62654;SDS011;48717;55.556;37.816;2023-01-09T16:05:45;7.13;;;2.97;;
62654;SDS011;48717;55.556;37.816;2023-01-09T16:08:19;6.07;;;2.83;;
62654;SDS011;48717;55.556;37.816;2023-01-09T16:10:50;9.88;;;3.95;;
62654;SDS011;48717;55.556;37.816;2023-01-09T16:13:19;7.55;;;3.42;;
62654;SDS011;48717;55.556;37.816;2023-01-09T16:20:47;5.93;;;2.92;;
62654;SDS011;48717;55.556;37.816;2023-01-09T16:23:21;8.43;;;3.95;;
62654;SDS011;48717;55.556;37.816;2023-01-09T16:25:48;8.35;;;4.00;;
62654;SDS011;48717;55.556;37.816;2023-01-09T16:28:19;2.35;;;1.98;;
62654;SDS011;48717;55.556;37.816;2023-01-09T16:30:53;7.88;;;2.97;;
62654;SDS011;48717;55.556;37.816;2023-01-09T16:33:23;3.75;;;1.98;;
62654;SDS011;48717;55.556;37.816;2023-01-09T16:35:51;8.68;;;3.22;;
62654;SDS011;48717;55.556;37.816;2023-01-09T16:38:20;6.32;;;3.15;;
62654;SDS011;48717;55.556;37.816;2023-01-09T16:40:59;10.13;;;4.20;;
62654;SDS011;48717;55.556;37.816;2023-01-09T16:43:44;6.05;;;2.50;;
62654;SDS011;48717;55.556;37.816;2023-01-09T16:46:13;6.43;;;3.20;;
62654;SDS011;48717;55.556;37.816;2023-01-09T16:48:42;5.55;;;1.80;;
62654;SDS011;48717;55.556;37.816;2023-01-09T16:51:16;6.35;;;2.08;;
62654;SDS011;48717;55.556;37.816;2023-01-09T16:53:45;12.07;;;3.45;;
62654;SDS011;48717;55.556;37.816;2023-01-09T16:56:15;5.72;;;3.22;;
62654;SDS011;48717;55.556;37.816;2023-01-09T16:58:45;10.77;;;4.03;;
62654;SDS011;48717;55.556;37.816;2023-01-09T17:01:12;7.93;;;2.88;;
62654;SDS011;48717;55.556;37.816;2023-01-09T17:03:41;4.93;;;2.30;;
62654;SDS011;48717;55.556;37.816;2023-01-09T17:06:44;7.93;;;3.00;;
62654;SDS011;48717;55.556;37.816;2023-01-09T17:09:04;7.20;;;3.63;;
62654;SDS011;48717;55.556;37.816;2023-01-09T17:11:32;3.60;;;1.88;;
62654;SDS011;48717;55.556;37.816;2023-01-09T17:13:59;5.22;;;2.83;;
62654;SDS011;48717;55.556;37.816;2023-01-09T17:16:27;2.90;;;2.17;;
62654;SDS011;48717;55.556;37.816;2023-01-09T17:18:55;8.98;;;3.80;;
62654;SDS011;48717;55.556;37.816;2023-01-09T17:21:23;9.98;;;2.85;;
62654;SDS011;48717;55.556;37.816;2023-01-09T17:23:54;5.20;;;2.15;;
62654;SDS011;48717;55.556;37.816;2023-01-09T17:26:40;8.70;;;3.10;;
62654;SDS011;48717;55.556;37.816;2023-01-09T17:29:28;4.78;;;2.55;;
62654;SDS011;48717;55.556;37.816;2023-01-09T17:31:56;2.80;;;1.70;;
62654;SDS011;48717;55.556;37.816;2023-01-09T17:34:24;3.92;;;2.15;;
62654;SDS011;48717;55.556;37.816;2023-01-09T17:36:51;9.40;;;3.53;;
62654;SDS011;48717;55.556;37.816;2023-01-09T17:39:21;5.30;;;2.80;;
62654;SDS011;48717;55.556;37.816;2023-01-09T17:41:49;7.18;;;2.72;;
62654;SDS011;48717;55.556;37.816;2023-01-09T17:44:16;8.27;;;3.55;;
62654;SDS011;48717;55.556;37.816;2023-01-09T17:46:43;7.55;;;3.50;;